Carmel, NY (10512)

10:52 AM EST on December 28, 2014 (GMT -0500)
Lake Sagamore | Change Station
CLOSE
Current Station
Personal Weather Station
Location: Kent Cliffs, NY
Elevation: 712 ft
Nearby Weather Stations

Elev 712 ft 41.48 °N, 73.78 °W | Updated 1 second ago

Mostly Cloudy
Mostly Cloudy
47.5 °F
Feels Like 48 °F
N
1.6
Wind Variable Wind from SW
Gusts 2.2 mph

Today
High -- | Low -- °F
--% Chance of Precip.
Yesterday
High -- | Low -- °F
Precip. -- in
7:20 AM 4:32 PM
Waxing Crescent, 49% visible
Pressure 29.90 in
Visibility 7.0 miles
Clouds Mostly Cloudy 3700 ft
Mostly Cloudy 8500 ft
Mostly Cloudy 10000 ft
Windchill 48 °F
Dew Point 41 °F
Humidity 78%
Rainfall 0.11 in
Snow Depth Not available.
UV 1 out of 12
Pollen .10 out of 12
Air Quality Not available.
Flu Activity Not available.
METAR KDXR 281453Z 25004KT 7SM BKN037 BKN085 BKN100 07/03 A2990 RMK AO2 RAB1359E10 SLP125 P0000 60007 T00670033 55002

More Conditions Fewer Conditions

Pressure 29.90 in
Visibility 7.0 miles
Clouds Mostly Cloudy 3700 ft
Mostly Cloudy 8500 ft
Mostly Cloudy 10000 ft
Windchill 48 °F
Dew Point 41 °F
Humidity 78%
Rainfall 0.11 in
Snow Depth Not available.
UV 1 out of 12
Pollen .10 out of 12
Air Quality Not available.
Flu Activity Not available.
METAR KDXR 281453Z 25004KT 7SM BKN037 BKN085 BKN100 07/03 A2990 RMK AO2 RAB1359E10 SLP125 P0000 60007 T00670033 55002

More Conditions Fewer Conditions

10-Day Weather Forecast

Almanac

Astronomy

Dec. 28, 2014 Rise Set
Actual Time
Civil Twilight
Nautical Twilight
Astronomical Twilight
Moon
Length of Visible Light
Length of Day
Tomorrow will be .
, % of the Moon is Illuminated

Today's Extremes

State Highs State Lows

Community

WunderPhotos

Upload Photos

1,781,309 photos uploaded!

WunderBlogs® & News

Nearby

Air Quality

  Air Quality AQ Index Pollutant
Not available.

Snow Depth

Station Depth Elevation

Earthquake Activity

City Distance Mag. Time & Date
Minimum magnitude displayed is 2.5.

Coastal Water Temperatures

Place Temperature

Nearby Weather Stations